Time;durP1;ratioP1;P1;durP2;ratioP2;P2;SDS_P1;SDS_P2;PMS_P1;PMS_P2;Temp;Humidity;BMP_temperature;BMP_pressure;BME280_temperature;BME280_humidity;BME280_pressure;Samples;Min_cycle;Max_cycle;Signal;HPM_P1;HPM_P2
2022/03/11 00:01:55;;;;;;;14.23;8.00;;;12.90;2201.60;;;;;;4977799;28;20029;-76
2022/03/11 00:04:21;;;;;;;12.98;7.53;;;12.90;2201.60;;;;;;4977891;28;20469;-76
2022/03/11 00:06:47;;;;;;;14.50;8.88;;;12.90;2201.60;;;;;;4977892;28;20030;-77
2022/03/11 00:09:12;;;;;;;13.43;8.32;;;12.90;2201.60;;;;;;4994922;28;20030;-78
2022/03/11 00:11:38;;;;;;;17.02;9.73;;;0.00;2201.60;;;;;;4995154;28;20065;-77
2022/03/11 00:14:04;;;;;;;15.70;9.02;;;12.90;2201.60;;;;;;4977547;28;20050;-76
2022/03/11 00:16:30;;;;;;;18.23;11.20;;;12.90;2201.60;;;;;;4995129;28;20125;-77
2022/03/11 00:18:56;;;;;;;19.10;9.18;;;12.90;2201.60;;;;;;4977709;28;20030;-76
2022/03/11 00:21:21;;;;;;;17.17;9.23;;;12.90;2201.60;;;;;;4995116;28;20027;-77
2022/03/11 00:23:47;;;;;;;17.20;8.65;;;13.00;2201.60;;;;;;4995055;28;20465;-76
2022/03/11 00:26:13;;;;;;;19.17;11.07;;;13.00;2201.60;;;;;;4994863;28;20037;-77
2022/03/11 00:28:38;;;;;;;12.55;7.00;;;12.90;2201.60;;;;;;4993361;28;20077;-77
2022/03/11 00:31:07;;;;;;;15.27;9.52;;;13.00;2201.60;;;;;;4994755;28;20033;-76
2022/03/11 00:33:33;;;;;;;14.90;8.98;;;13.10;2201.60;;;;;;4977464;28;20026;-76
2022/03/11 00:35:59;;;;;;;23.02;12.93;;;13.10;2201.60;;;;;;4994783;28;20468;-76
2022/03/11 00:38:25;;;;;;;21.23;12.15;;;13.10;2201.60;;;;;;4977345;28;20027;-76
2022/03/11 00:40:56;;;;;;;16.00;9.38;;;13.10;2201.60;;;;;;4994531;28;20053;-75
2022/03/11 00:43:25;;;;;;;22.30;11.90;;;13.20;2201.60;;;;;;4994787;28;20161;-76
2022/03/11 00:45:51;;;;;;;17.60;9.38;;;13.20;2201.60;;;;;;4977162;28;20022;-75
2022/03/11 00:48:17;;;;;;;20.08;11.05;;;13.20;2201.60;;;;;;4977154;28;20541;-76
2022/03/11 00:50:44;;;;;;;20.05;11.63;;;13.30;2201.60;;;;;;4994835;28;20153;-76
2022/03/11 00:53:09;;;;;;;16.75;9.50;;;13.20;2201.60;;;;;;4976818;28;20493;-76
2022/03/11 00:55:35;;;;;;;16.92;9.48;;;13.20;2201.60;;;;;;4976943;28;20034;-75
2022/03/11 00:58:01;;;;;;;20.33;10.95;;;13.30;2201.60;;;;;;4994145;28;20484;-76
2022/03/11 01:00:27;;;;;;;18.30;9.52;;;13.30;2201.60;;;;;;4976743;28;20371;-76
2022/03/11 01:02:53;;;;;;;23.60;14.77;;;13.40;2201.60;;;;;;4976553;28;20541;-76
2022/03/11 01:05:22;;;;;;;20.90;11.07;;;13.30;2201.60;;;;;;4994370;28;20093;-78
2022/03/11 01:07:47;;;;;;;19.20;11.18;;;13.40;2201.60;;;;;;4994041;28;20029;-76
2022/03/11 01:10:13;;;;;;;22.38;12.52;;;13.40;2201.60;;;;;;4992942;28;20386;-77
2022/03/11 01:12:39;;;;;;;18.80;11.93;;;13.40;2201.60;;;;;;4994245;28;20029;-76
2022/03/11 01:15:06;;;;;;;17.90;11.88;;;13.40;2201.60;;;;;;4993860;28;20081;-77
2022/03/11 01:17:32;;;;;;;20.02;10.25;;;13.40;2201.60;;;;;;4976576;28;20061;-75
2022/03/11 01:19:58;;;;;;;21.65;12.05;;;13.40;2201.60;;;;;;4976627;28;20481;-77
2022/03/11 01:22:24;;;;;;;17.73;9.18;;;13.40;2201.60;;;;;;4976713;28;20073;-75
2022/03/11 01:24:50;;;;;;;17.38;10.13;;;13.40;2201.60;;;;;;4993948;28;20022;-76
2022/03/11 01:27:15;;;;;;;18.63;9.63;;;13.40;2201.60;;;;;;4994036;28;20022;-75
2022/03/11 01:29:41;;;;;;;13.05;8.65;;;13.50;2201.60;;;;;;4993716;28;20474;-76
2022/03/11 01:32:07;;;;;;;13.05;8.98;;;13.50;2201.60;;;;;;4993662;28;20035;-77
2022/03/11 01:34:33;;;;;;;22.35;12.23;;;13.50;2201.60;;;;;;4992717;28;20030;-77
2022/03/11 01:36:59;;;;;;;17.92;9.63;;;13.50;2201.60;;;;;;4976458;28;20034;-77
2022/03/11 01:39:25;;;;;;;19.45;9.75;;;13.60;2201.60;;;;;;4976412;28;20049;-78
2022/03/11 01:41:50;;;;;;;17.00;8.85;;;13.70;2201.60;;;;;;4976316;28;20053;-76
2022/03/11 01:44:16;;;;;;;14.40;6.75;;;13.70;2201.60;;;;;;4976231;28;20493;-76
2022/03/11 01:46:42;;;;;;;22.42;13.60;;;38.40;2201.60;;;;;;4993687;28;20026;-76
2022/03/11 01:49:09;;;;;;;15.82;10.40;;;38.40;2201.60;;;;;;4993365;28;20026;-77
2022/03/11 01:51:38;;;;;;;11.13;6.85;;;38.40;2201.60;;;;;;4993338;28;20070;-77
2022/03/11 01:54:05;;;;;;;18.42;10.70;;;38.40;2201.60;;;;;;4975828;28;20030;-81
2022/03/11 01:56:32;;;;;;;15.05;8.25;;;38.50;2201.60;;;;;;5008269;28;20046;-75
2022/03/11 01:58:58;;;;;;;17.58;9.02;;;38.50;2201.60;;;;;;4992941;28;20034;-78
2022/03/11 02:01:24;;;;;;;18.13;10.02;;;38.60;2201.60;;;;;;4993158;28;20045;-77
2022/03/11 02:03:51;;;;;;;14.70;7.78;;;38.50;2201.60;;;;;;4975754;28;20031;-77
2022/03/11 02:06:18;;;;;;;15.00;9.60;;;38.60;2201.60;;;;;;4991383;28;20425;-77
2022/03/11 02:08:44;;;;;;;20.90;9.88;;;38.60;2201.60;;;;;;4992064;28;20023;-77
2022/03/11 02:11:11;;;;;;;14.40;9.27;;;38.60;2201.60;;;;;;4993316;28;20029;-76
2022/03/11 02:13:47;;;;;;;19.75;10.98;;;38.60;2201.60;;;;;;4991970;28;20030;-76
2022/03/11 02:16:14;;;;;;;10.10;6.53;;;38.50;2201.60;;;;;;4993154;28;20046;-77
2022/03/11 02:18:41;;;;;;;16.48;7.65;;;38.60;2201.60;;;;;;4975707;28;20027;-76
2022/03/11 02:21:07;;;;;;;19.23;10.80;;;38.60;2201.60;;;;;;4975268;28;20027;-76
2022/03/11 02:23:46;;;;;;;12.32;7.70;;;38.60;2201.60;;;;;;4975713;28;20081;-77
2022/03/11 02:26:16;;;;;;;25.42;10.20;;;38.60;2201.60;;;;;;4975531;28;20026;-76
2022/03/11 02:28:43;;;;;;;17.38;8.50;;;38.60;2201.60;;;;;;4992594;28;20018;-76
2022/03/11 02:31:09;;;;;;;12.75;8.10;;;38.60;2201.60;;;;;;4992542;28;20034;-77
2022/03/11 02:33:35;;;;;;;12.10;8.15;;;38.50;2201.60;;;;;;4975509;28;20030;-75
2022/03/11 02:36:01;;;;;;;16.65;10.32;;;38.60;2201.60;;;;;;4975031;28;20482;-76
2022/03/11 02:38:27;;;;;;;19.90;12.50;;;38.60;2201.60;;;;;;4975418;28;20124;-76
2022/03/11 02:40:54;;;;;;;23.58;10.45;;;38.50;2201.60;;;;;;4975371;28;20450;-76
2022/03/11 02:43:20;;;;;;;13.75;9.30;;;38.50;2201.60;;;;;;4993104;28;20028;-77
2022/03/11 02:45:46;;;;;;;14.38;9.52;;;38.50;2201.60;;;;;;4992787;28;20027;-77
2022/03/11 02:48:11;;;;;;;13.02;7.75;;;38.60;2201.60;;;;;;4992425;28;20027;-77
2022/03/11 02:50:37;;;;;;;11.73;7.63;;;38.60;2201.60;;;;;;4974801;28;20026;-77
2022/03/11 02:53:03;;;;;;;14.15;9.75;;;38.60;2201.60;;;;;;4975290;28;20031;-76
2022/03/11 02:55:29;;;;;;;13.20;7.25;;;38.50;2201.60;;;;;;4992863;28;20433;-76
2022/03/11 02:57:54;;;;;;;15.55;8.88;;;38.50;2201.60;;;;;;4992387;28;20478;-76
2022/03/11 03:00:20;;;;;;;22.63;10.02;;;38.50;2201.60;;;;;;4992694;28;20102;-76
2022/03/11 03:02:46;;;;;;;21.05;11.13;;;38.50;2201.60;;;;;;4991229;28;20026;-77
2022/03/11 03:05:13;;;;;;;17.70;9.68;;;38.50;2201.60;;;;;;4975435;28;20034;-77
2022/03/11 03:07:39;;;;;;;15.60;8.10;;;38.50;2201.60;;;;;;4992352;28;20026;-76
2022/03/11 03:10:06;;;;;;;19.13;10.77;;;38.50;2201.60;;;;;;4979569;28;20023;-77
2022/03/11 03:12:32;;;;;;;14.13;8.45;;;38.50;2201.60;;;;;;4990855;28;20034;-76
2022/03/11 03:14:58;;;;;;;15.32;8.18;;;38.70;2201.60;;;;;;5007418;28;20055;-76
2022/03/11 03:17:24;;;;;;;18.08;10.57;;;38.70;2201.60;;;;;;4991663;28;20046;-76
2022/03/11 03:19:50;;;;;;;21.50;11.40;;;38.60;2201.60;;;;;;4979001;28;20026;-76
2022/03/11 03:22:16;;;;;;;18.30;9.27;;;38.60;2201.60;;;;;;4978916;28;20625;-76
2022/03/11 03:24:42;;;;;;;14.38;8.90;;;38.70;2201.60;;;;;;4978874;28;20026;-76
2022/03/11 03:27:09;;;;;;;22.60;12.57;;;38.70;2201.60;;;;;;4996059;28;21182;-77
2022/03/11 03:29:36;;;;;;;22.33;11.27;;;38.70;2201.60;;;;;;4996037;28;20486;-77
2022/03/11 03:32:02;;;;;;;16.90;11.45;;;38.60;2201.60;;;;;;4996138;28;20030;-77
2022/03/11 03:34:30;;;;;;;27.63;8.05;;;38.70;2201.60;;;;;;4996458;28;20109;-77
2022/03/11 03:37:00;;;;;;;20.85;11.38;;;38.70;2201.60;;;;;;4978507;28;20081;-77
2022/03/11 03:39:26;;;;;;;19.33;10.52;;;38.70;2201.60;;;;;;4995798;28;20022;-77
2022/03/11 03:41:53;;;;;;;18.45;10.35;;;38.70;2201.60;;;;;;4978541;28;20030;-77
2022/03/11 03:44:19;;;;;;;25.23;11.45;;;38.70;2201.60;;;;;;4978555;28;20073;-77
2022/03/11 03:46:44;;;;;;;19.83;12.65;;;38.70;2201.60;;;;;;4978475;28;20421;-76
2022/03/11 03:49:10;;;;;;;19.55;11.40;;;38.70;2201.60;;;;;;4995534;28;20418;-77
2022/03/11 03:51:38;;;;;;;24.60;14.00;;;38.70;2201.60;;;;;;4995635;28;20024;-77
2022/03/11 03:54:05;;;;;;;29.27;13.40;;;38.70;2201.60;;;;;;4995856;28;20054;-77
2022/03/11 03:56:31;;;;;;;29.67;16.30;;;38.80;2201.60;;;;;;4978032;28;20478;-77
2022/03/11 03:58:57;;;;;;;26.23;15.70;;;38.80;2201.60;;;;;;4995834;28;20049;-76
2022/03/11 04:01:22;;;;;;;31.92;13.05;;;38.70;2201.60;;;;;;4978158;28;20121;-76
2022/03/11 04:03:48;;;;;;;24.55;14.23;;;38.80;2201.60;;;;;;4995661;28;20026;-76
2022/03/11 04:06:14;;;;;;;14.73;8.10;;;38.70;2201.60;;;;;;4995250;28;20026;-77
2022/03/11 04:08:40;;;;;;;16.98;11.23;;;38.80;2201.60;;;;;;4978289;28;20052;-77
2022/03/11 04:11:05;;;;;;;15.02;9.77;;;38.70;2201.60;;;;;;4995566;28;20026;-76
2022/03/11 04:13:31;;;;;;;12.07;6.57;;;38.70;2201.60;;;;;;4962749;28;20026;-77
2022/03/11 04:15:57;;;;;;;14.57;8.23;;;38.80;2201.60;;;;;;4976047;28;20061;-76
2022/03/11 04:18:22;;;;;;;21.63;13.00;;;38.80;2201.60;;;;;;4988187;28;20497;-77
2022/03/11 04:20:48;;;;;;;20.92;11.50;;;38.80;2201.60;;;;;;4995638;28;20101;-76
2022/03/11 04:23:14;;;;;;;23.92;13.27;;;38.80;2201.60;;;;;;4994976;28;20023;-77
2022/03/11 04:25:39;;;;;;;26.33;12.55;;;38.90;2201.60;;;;;;4993955;28;20451;-77
2022/03/11 04:28:06;;;;;;;20.75;12.98;;;38.80;2201.60;;;;;;4994785;28;20034;-77
2022/03/11 04:30:32;;;;;;;19.90;12.10;;;38.80;2201.60;;;;;;4995265;28;20050;-76
2022/03/11 04:32:57;;;;;;;22.42;11.13;;;38.80;2201.60;;;;;;4994870;28;20026;-77
2022/03/11 04:35:23;;;;;;;24.98;13.88;;;38.80;2201.60;;;;;;4994944;28;20441;-76
2022/03/11 04:37:49;;;;;;;26.67;14.43;;;38.80;2201.60;;;;;;4995028;28;20521;-76
2022/03/11 04:40:14;;;;;;;23.52;12.70;;;38.80;2201.60;;;;;;4995266;28;20069;-77
2022/03/11 04:42:40;;;;;;;30.20;14.95;;;38.80;2201.60;;;;;;4995220;28;20105;-77
2022/03/11 04:45:06;;;;;;;35.45;15.57;;;38.80;2201.60;;;;;;4994638;28;20030;-77
2022/03/11 04:47:32;;;;;;;17.80;8.00;;;38.90;2201.60;;;;;;4976956;28;20077;-77
2022/03/11 04:49:58;;;;;;;27.77;15.40;;;38.90;2201.60;;;;;;4994131;28;20026;-77
2022/03/11 04:52:24;;;;;;;24.13;12.25;;;38.90;2201.60;;;;;;4994471;28;20022;-76
2022/03/11 04:54:49;;;;;;;29.92;15.05;;;38.90;2201.60;;;;;;4977364;28;20033;-77
2022/03/11 04:57:15;;;;;;;27.02;17.17;;;38.90;2201.60;;;;;;4994469;28;20042;-77
2022/03/11 04:59:42;;;;;;;17.30;10.55;;;38.90;2201.60;;;;;;4977234;28;20038;-77
2022/03/11 05:02:08;;;;;;;22.13;12.43;;;39.00;2201.60;;;;;;4989997;28;20402;-77
2022/03/11 05:04:34;;;;;;;22.95;13.38;;;39.00;2201.60;;;;;;4993342;28;20037;-77
2022/03/11 05:06:59;;;;;;;20.33;14.60;;;39.00;2201.60;;;;;;4985198;28;20367;-76
2022/03/11 05:09:25;;;;;;;20.65;9.77;;;39.00;2201.60;;;;;;4974551;28;20042;-76
2022/03/11 05:11:51;;;;;;;17.70;10.27;;;39.10;2201.60;;;;;;4975175;28;20027;-88
2022/03/11 05:14:17;;;;;;;23.63;15.45;;;39.10;2201.60;;;;;;4973562;28;20054;-77
2022/03/11 05:16:42;;;;;;;18.50;10.48;;;39.10;2201.60;;;;;;4973268;28;20470;-77
2022/03/11 05:19:08;;;;;;;21.15;13.57;;;39.20;2201.60;;;;;;4991513;28;20036;-76
2022/03/11 05:21:34;;;;;;;23.70;13.98;;;39.20;2201.60;;;;;;4994157;28;20101;-76
2022/03/11 05:24:00;;;;;;;28.05;16.13;;;39.10;2201.60;;;;;;4976738;28;20034;-77
2022/03/11 05:26:26;;;;;;;27.38;18.02;;;39.20;2201.60;;;;;;4993763;28;20053;-78
2022/03/11 05:28:57;;;;;;;24.77;13.80;;;39.10;2201.60;;;;;;4993898;28;20454;-78
2022/03/11 05:31:24;;;;;;;25.85;13.60;;;39.10;2201.60;;;;;;4982860;28;20023;-76
2022/03/11 05:33:51;;;;;;;21.77;12.07;;;39.10;2201.60;;;;;;4974311;28;20398;-77
2022/03/11 05:36:17;;;;;;;22.77;12.27;;;39.10;2201.60;;;;;;4989338;28;20046;-78
2022/03/11 05:38:43;;;;;;;36.28;16.60;;;39.10;2201.60;;;;;;4974198;28;20023;-79
2022/03/11 05:41:09;;;;;;;30.77;15.27;;;39.10;2201.60;;;;;;4973344;28;20101;-78
2022/03/11 05:43:36;;;;;;;19.77;12.30;;;39.10;2201.60;;;;;;4979007;28;20061;-77
2022/03/11 05:46:03;;;;;;;32.70;16.02;;;39.10;2201.60;;;;;;4973383;28;20065;-77
2022/03/11 05:48:28;;;;;;;27.55;13.15;;;39.00;2201.60;;;;;;4974565;28;20501;-78
2022/03/11 05:50:54;;;;;;;38.47;16.85;;;39.10;2201.60;;;;;;4988064;28;20023;-78
2022/03/11 05:53:20;;;;;;;33.83;17.73;;;38.90;2201.60;;;;;;4977773;28;20034;-78
2022/03/11 05:55:45;;;;;;;21.45;11.88;;;39.00;2201.60;;;;;;4974714;28;20560;-79
2022/03/11 05:58:11;;;;;;;12.63;7.88;;;39.00;2201.60;;;;;;4981565;28;20030;-78
2022/03/11 06:00:37;;;;;;;14.27;10.25;;;39.20;2201.60;;;;;;4979546;28;20073;-78
2022/03/11 06:03:03;;;;;;;25.60;13.20;;;39.10;2201.60;;;;;;4990246;28;20054;-79
2022/03/11 06:05:29;;;;;;;25.10;13.98;;;39.00;2201.60;;;;;;4994085;28;20037;-78
2022/03/11 06:07:54;;;;;;;27.73;15.65;;;38.90;2201.60;;;;;;4995374;28;20029;-79
2022/03/11 06:10:20;;;;;;;27.48;17.77;;;38.90;2201.60;;;;;;4995133;28;20026;-79
2022/03/11 06:12:46;;;;;;;46.03;23.52;;;38.80;2201.60;;;;;;5012772;28;20030;-75
2022/03/11 06:15:12;;;;;;;47.85;24.60;;;38.80;2201.60;;;;;;4994975;28;20449;-77
2022/03/11 06:17:38;;;;;;;37.08;21.00;;;38.60;2201.60;;;;;;5012852;28;20038;-90
2022/03/11 06:20:05;;;;;;;40.08;24.65;;;38.60;2201.60;;;;;;5008514;28;20022;-89
2022/03/11 06:22:31;;;;;;;67.85;26.40;;;38.50;2201.60;;;;;;4993673;28;20029;-80
2022/03/11 06:24:59;;;;;;;134.30;55.03;;;38.40;2201.60;;;;;;4993647;28;20026;-90
2022/03/11 06:27:25;;;;;;;125.10;46.53;;;13.70;2201.60;;;;;;4978054;28;20054;-87
2022/03/11 06:29:52;;;;;;;58.35;24.38;;;13.70;2201.60;;;;;;4973330;28;20027;-91
2022/03/11 06:32:18;;;;;;;44.40;23.65;;;13.70;2201.60;;;;;;4989590;28;20027;-85
2022/03/11 06:34:44;;;;;;;40.20;22.42;;;13.50;2201.60;;;;;;4974426;28;20023;-89
2022/03/11 06:37:09;;;;;;;41.92;19.27;;;38.40;2201.60;;;;;;4987718;28;20126;-86
2022/03/11 06:39:35;;;;;;;40.97;24.40;;;38.50;2201.60;;;;;;4992658;28;20497;-92
2022/03/11 06:42:01;;;;;;;71.00;36.53;;;13.70;2201.60;;;;;;4981022;28;20064;-85
2022/03/11 06:44:27;;;;;;;55.13;27.67;;;13.50;2201.60;;;;;;4977295;28;20533;-87
2022/03/11 06:46:52;;;;;;;40.47;18.48;;;13.40;2201.60;;;;;;4974885;28;20030;-87
2022/03/11 06:49:18;;;;;;;43.40;25.17;;;13.40;2201.60;;;;;;4975898;28;20034;-82
2022/03/11 06:51:44;;;;;;;33.50;19.23;;;13.60;2201.60;;;;;;4976545;28;20084;-90
2022/03/11 06:54:10;;;;;;;25.23;13.45;;;13.60;2201.60;;;;;;4976169;28;20023;-88
2022/03/11 06:56:36;;;;;;;23.02;12.07;;;13.70;2201.60;;;;;;4973460;28;20035;-89
2022/03/11 06:59:05;;;;;;;25.23;13.10;;;13.70;2201.60;;;;;;4973361;28;20023;-85
2022/03/11 07:01:31;;;;;;;30.98;14.10;;;13.70;2201.60;;;;;;4990709;28;20026;-85
2022/03/11 07:03:57;;;;;;;20.88;9.90;;;13.50;2201.60;;;;;;4992839;28;20023;-83
2022/03/11 07:06:23;;;;;;;16.10;9.15;;;13.60;2201.60;;;;;;4992674;28;20023;-87
2022/03/11 07:08:48;;;;;;;21.42;16.25;;;13.60;2201.60;;;;;;4992759;28;20030;-86
2022/03/11 07:11:14;;;;;;;17.05;10.82;;;13.70;2201.60;;;;;;4993422;28;20525;-85
2022/03/11 07:13:40;;;;;;;16.20;10.10;;;13.70;2201.60;;;;;;4975197;28;20097;-86
2022/03/11 07:16:06;;;;;;;21.92;11.65;;;13.60;2201.60;;;;;;4992861;28;20494;-87
2022/03/11 07:18:32;;;;;;;23.80;9.07;;;13.50;2201.60;;;;;;4965347;28;20023;-82
2022/03/11 07:21:00;;;;;;;26.40;11.55;;;13.70;2201.60;;;;;;4956055;28;20138;-86
2022/03/11 07:23:27;;;;;;;10.43;7.40;;;13.60;2201.60;;;;;;4973426;28;20113;-84
2022/03/11 07:25:52;;;;;;;24.42;13.57;;;13.60;2201.60;;;;;;4973141;28;20057;-88
2022/03/11 07:28:20;;;;;;;24.42;14.50;;;13.30;2201.60;;;;;;4973516;28;20051;-80
2022/03/11 07:30:46;;;;;;;17.10;11.07;;;13.20;2201.60;;;;;;4973347;28;20033;-83
2022/03/11 07:33:12;;;;;;;19.05;10.13;;;13.20;2073.60;;;;;;4992520;28;20105;-83
2022/03/11 07:35:38;;;;;;;67.53;28.00;;;13.40;2073.60;;;;;;4991213;28;20023;-81
2022/03/11 07:38:04;;;;;;;23.85;14.48;;;13.40;2150.40;;;;;;4991339;28;20398;-88
2022/03/11 07:40:30;;;;;;;27.42;12.70;;;13.10;2099.20;;;;;;4991426;28;20154;-82
2022/03/11 07:42:55;;;;;;;19.35;12.15;;;13.30;2048.00;;;;;;4992249;28;20074;-80
2022/03/11 07:45:21;;;;;;;29.83;19.75;;;13.10;2099.20;;;;;;4991113;28;20536;-86
2022/03/11 07:47:47;;;;;;;24.10;12.48;;;13.10;2124.80;;;;;;4992867;28;20033;-80
2022/03/11 07:50:13;;;;;;;14.07;9.07;;;13.00;2022.40;;;;;;4992681;28;20022;-81
2022/03/11 07:52:40;;;;;;;32.38;17.65;;;13.20;1971.20;;;;;;4992353;28;20018;-85
2022/03/11 07:55:08;;;;;;;33.50;18.85;;;0.00;1945.60;;;;;;4992322;28;20033;-81
2022/03/11 07:57:36;;;;;;;28.85;17.77;;;0.00;1894.40;;;;;;4971459;28;20097;-79
2022/03/11 08:00:08;;;;;;;20.13;11.73;;;0.20;1894.40;;;;;;4972909;28;20062;-77
2022/03/11 08:02:34;;;;;;;21.85;11.40;;;0.10;1843.20;;;;;;4972992;28;20019;-82
2022/03/11 08:05:00;;;;;;;36.72;14.50;;;0.10;1894.40;;;;;;4975751;28;20034;-77
2022/03/11 08:07:26;;;;;;;23.15;14.85;;;0.30;1920.00;;;;;;4976490;28;20058;-78
2022/03/11 08:09:52;;;;;;;47.03;15.52;;;0.20;1894.40;;;;;;4975018;28;20030;-80
2022/03/11 08:12:18;;;;;;;25.30;13.85;;;0.20;1945.60;;;;;;4975946;28;20085;-80
2022/03/11 08:14:44;;;;;;;20.27;10.65;;;0.50;1817.60;;;;;;4975440;28;20522;-84
2022/03/11 08:17:10;;;;;;;28.38;13.25;;;0.50;1792.00;;;;;;4975911;28;20139;-85
2022/03/11 08:19:36;;;;;;;16.27;10.38;;;0.90;1817.60;;;;;;4975999;28;20072;-83
2022/03/11 08:22:02;;;;;;;21.33;12.73;;;0.60;1766.40;;;;;;4975832;28;20030;-79
2022/03/11 08:24:29;;;;;;;26.13;13.10;;;0.40;1792.00;;;;;;4974725;28;20391;-83
2022/03/11 08:26:55;;;;;;;18.83;12.40;;;25.60;1766.40;;;;;;4974450;28;20034;-81
2022/03/11 08:29:21;;;;;;;21.08;13.80;;;0.90;1766.40;;;;;;4990995;28;20022;-81
2022/03/11 08:31:50;;;;;;;31.02;17.83;;;25.90;1766.40;;;;;;4984360;28;20037;-82
2022/03/11 08:34:16;;;;;;;18.48;11.32;;;26.20;1740.80;;;;;;4993780;28;20053;-82
2022/03/11 08:36:42;;;;;;;17.77;11.90;;;26.10;1740.80;;;;;;4995346;28;20061;-87
2022/03/11 08:39:07;;;;;;;25.92;14.00;;;26.20;1689.60;;;;;;4970067;28;20466;-80
2022/03/11 08:41:33;;;;;;;15.07;8.63;;;26.30;1740.80;;;;;;4974657;28;20023;-82
2022/03/11 08:44:00;;;;;;;18.92;13.40;;;26.10;1715.20;;;;;;4989593;28;20023;-79
2022/03/11 08:46:29;;;;;;;18.02;9.93;;;25.80;1792.00;;;;;;4977485;28;20403;-83
2022/03/11 08:48:55;;;;;;;30.50;14.35;;;25.90;1817.60;;;;;;4973290;28;20054;-79
2022/03/11 08:51:20;;;;;;;17.50;11.57;;;25.70;1843.20;;;;;;4973236;28;20057;-80
2022/03/11 08:53:48;;;;;;;23.10;13.02;;;25.60;1766.40;;;;;;4974845;28;20030;-79
2022/03/11 08:56:15;;;;;;;21.15;12.32;;;25.80;1792.00;;;;;;4978239;28;20070;-82
2022/03/11 08:58:41;;;;;;;12.43;7.20;;;25.80;1715.20;;;;;;4992213;28;20073;-78
2022/03/11 09:01:07;;;;;;;23.52;14.02;;;25.90;1715.20;;;;;;4977094;28;20027;-81
2022/03/11 09:03:32;;;;;;;20.65;12.65;;;26.40;1766.40;;;;;;4976874;28;20390;-78
2022/03/11 09:05:58;;;;;;;28.40;17.13;;;51.50;1766.40;;;;;;4975616;28;20497;-79
2022/03/11 09:08:24;;;;;;;26.98;16.50;;;52.00;1945.60;;;;;;4957007;28;20529;-80
2022/03/11 09:10:50;;;;;;;27.70;16.70;;;77.20;1689.60;;;;;;4974929;28;20508;-79
2022/03/11 09:13:15;;;;;;;32.08;18.33;;;77.20;1689.60;;;;;;4972625;28;20034;-79
2022/03/11 09:15:41;;;;;;;33.08;14.13;;;77.70;1638.40;;;;;;4991625;28;20055;-78
2022/03/11 09:18:07;;;;;;;31.75;17.15;;;77.10;1561.60;;;;;;4974383;28;20034;-77
2022/03/11 09:20:34;;;;;;;27.08;16.02;;;76.90;1612.80;;;;;;4973738;28;20046;-77
2022/03/11 09:23:02;;;;;;;16.23;11.07;;;52.10;1587.20;;;;;;4972534;28;20529;-79
2022/03/11 09:25:27;;;;;;;12.48;8.27;;;51.50;1612.80;;;;;;4973692;28;20015;-77
2022/03/11 09:27:53;;;;;;;18.13;10.73;;;26.50;1587.20;;;;;;4973959;28;20030;-77
2022/03/11 09:30:19;;;;;;;20.27;13.10;;;26.20;1587.20;;;;;;4973732;28;20019;-77
2022/03/11 09:32:45;;;;;;;22.52;12.23;;;51.50;1612.80;;;;;;4974882;28;20655;-78
2022/03/11 09:35:12;;;;;;;25.02;17.48;;;51.80;1587.20;;;;;;4973321;28;20030;-78
2022/03/11 09:37:38;;;;;;;21.77;16.55;;;76.90;1612.80;;;;;;4973581;28;20035;-78
2022/03/11 09:40:05;;;;;;;24.98;17.08;;;77.20;1612.80;;;;;;4973803;28;20034;-78
2022/03/11 09:42:31;;;;;;;29.63;15.23;;;102.40;1715.20;;;;;;4988374;28;20470;-78
2022/03/11 09:44:57;;;;;;;31.85;18.08;;;103.00;1638.40;;;;;;4973288;28;20043;-76
2022/03/11 09:47:23;;;;;;;26.98;16.15;;;103.30;1536.00;;;;;;4975700;28;20104;-78
2022/03/11 09:49:51;;;;;;;31.08;17.40;;;128.30;1612.80;;;;;;4972067;28;20018;-78
2022/03/11 09:52:19;;;;;;;24.25;16.45;;;128.60;1536.00;;;;;;4971907;28;20038;-77
2022/03/11 09:54:46;;;;;;;20.67;13.63;;;128.90;1536.00;;;;;;4973057;28;20019;-76
2022/03/11 09:57:23;;;;;;;25.92;15.13;;;102.90;1484.80;;;;;;4973086;28;20097;-76
2022/03/11 09:59:49;;;;;;;19.83;11.43;;;102.40;1510.40;;;;;;4974191;28;20117;-80
2022/03/11 10:02:16;;;;;;;24.65;17.17;;;76.90;1536.00;;;;;;4975910;28;20022;-80
2022/03/11 10:04:50;;;;;;;37.33;16.23;;;77.50;1561.60;;;;;;4988164;28;20026;-79
2022/03/11 10:07:25;;;;;;;31.23;19.55;;;77.10;1561.60;;;;;;4973756;28;20522;-80
2022/03/11 10:09:51;;;;;;;36.75;18.40;;;102.50;1536.00;;;;;;4956422;28;20038;-79
2022/03/11 10:12:28;;;;;;;37.60;18.00;;;103.20;1484.80;;;;;;4973629;28;20041;-76
2022/03/11 10:15:03;;;;;;;22.98;15.85;;;128.40;1459.20;;;;;;4988397;28;20054;-79
2022/03/11 10:17:39;;;;;;;19.92;13.05;;;128.40;1459.20;;;;;;4972605;28;20051;-80
2022/03/11 10:20:07;;;;;;;29.58;13.57;;;128.90;1433.60;;;;;;4974017;28;20402;-92
2022/03/11 10:22:33;;;;;;;17.85;12.90;;;102.60;1459.20;;;;;;4989614;28;20027;-88
2022/03/11 10:25:21;;;;;;;21.08;13.40;;;77.70;1484.80;;;;;;4974871;28;20034;-90
2022/03/11 10:28:09;;;;;;;18.75;12.38;;;77.30;1510.40;;;;;;4972649;28;20051;-88
2022/03/11 10:30:40;;;;;;;25.02;14.50;;;77.50;1459.20;;;;;;4974547;28;20181;-88
2022/03/11 10:33:08;;;;;;;21.83;14.00;;;102.60;1459.20;;;;;;4956272;28;20035;-88
2022/03/11 10:35:39;;;;;;;28.13;14.00;;;102.60;1433.60;;;;;;4972482;28;20125;-88
2022/03/11 10:38:07;;;;;;;22.02;13.73;;;128.30;1433.60;;;;;;4976217;28;20433;-87
2022/03/11 10:40:34;;;;;;;17.13;11.43;;;102.70;1433.60;;;;;;4988576;28;20435;-88
2022/03/11 10:43:18;;;;;;;18.25;12.40;;;103.00;1433.60;;;;;;4988834;28;20458;-89
2022/03/11 10:45:53;;;;;;;19.65;13.00;;;103.10;1433.60;;;;;;4993874;28;20026;-86
2022/03/11 10:48:40;;;;;;;19.25;12.52;;;128.10;1408.00;;;;;;4976076;28;20022;-86
2022/03/11 10:51:31;;;;;;;21.58;13.55;;;103.10;1408.00;;;;;;4973108;28;20030;-89
2022/03/11 10:53:59;;;;;;;26.75;11.93;;;153.90;1356.80;;;;;;4972370;28;20018;-83
2022/03/11 10:56:36;;;;;;;19.73;14.60;;;103.00;1408.00;;;;;;4985100;28;20058;-77
2022/03/11 10:59:24;;;;;;;19.95;11.65;;;128.10;1382.40;;;;;;4991170;28;20037;-77
2022/03/11 11:01:55;;;;;;;19.70;11.95;;;128.30;1305.60;;;;;;5007365;28;20029;-77
2022/03/11 11:04:21;;;;;;;17.15;12.98;;;128.50;1331.20;;;;;;4979855;28;20035;-76
2022/03/11 11:06:47;;;;;;;24.33;14.35;;;128.10;1382.40;;;;;;4972126;28;20043;-75
2022/03/11 11:09:17;;;;;;;11.80;7.68;;;179.40;1356.80;;;;;;4972825;28;20029;-77
2022/03/11 11:11:42;;;;;;;20.45;11.00;;;128.00;1408.00;;;;;;4973042;28;20105;-76
2022/03/11 11:14:09;;;;;;;9.75;6.95;;;103.00;1408.00;;;;;;4972268;28;20177;-76
2022/03/11 11:16:42;;;;;;;19.88;12.02;;;102.50;1331.20;;;;;;4972113;28;20035;-77
2022/03/11 11:19:19;;;;;;;13.48;9.27;;;77.30;1408.00;;;;;;4971984;28;20038;-79
2022/03/11 11:21:47;;;;;;;13.85;7.25;;;77.00;1382.40;;;;;;4971916;28;20038;-76
2022/03/11 11:24:21;;;;;;;17.00;10.90;;;76.90;1433.60;;;;;;4955477;28;20027;-76
2022/03/11 11:26:55;;;;;;;19.27;8.77;;;102.40;1382.40;;;;;;4972103;28;20064;-77
2022/03/11 11:29:27;;;;;;;24.27;13.43;;;102.70;1356.80;;;;;;4972490;28;20494;-76
2022/03/11 11:31:53;;;;;;;19.58;11.52;;;128.00;1408.00;;;;;;4982600;28;20022;-76
2022/03/11 11:34:34;;;;;;;19.35;11.63;;;102.90;1356.80;;;;;;4977617;28;20074;-77
2022/03/11 11:37:00;;;;;;;11.13;6.82;;;102.90;1382.40;;;;;;4971134;28;20035;-75
2022/03/11 11:39:37;;;;;;;9.73;5.95;;;77.70;1382.40;;;;;;4973722;28;20026;-75
2022/03/11 11:42:09;;;;;;;14.55;10.23;;;77.00;1382.40;;;;;;4976353;28;20061;-76
2022/03/11 11:44:36;;;;;;;13.57;10.50;;;77.20;1382.40;;;;;;4975185;28;20031;-76
2022/03/11 11:47:17;;;;;;;12.43;7.18;;;77.10;1408.00;;;;;;4974885;28;20474;-77
2022/03/11 11:49:47;;;;;;;14.50;9.45;;;76.90;1433.60;;;;;;4994320;28;20422;-76
2022/03/11 11:52:35;;;;;;;24.48;11.10;;;77.40;1408.00;;;;;;4995799;28;20043;-75
2022/03/11 11:55:21;;;;;;;16.08;7.82;;;77.40;1433.60;;;;;;4994286;28;20084;-75
2022/03/11 11:57:52;;;;;;;18.60;9.77;;;77.30;1408.00;;;;;;4976951;28;20375;-76
2022/03/11 12:00:27;;;;;;;27.00;10.00;;;77.30;1433.60;;;;;;4992340;28;20026;-75
2022/03/11 12:02:53;;;;;;;13.35;7.63;;;77.20;1433.60;;;;;;4958406;28;20368;-76
2022/03/11 12:05:45;;;;;;;15.80;8.32;;;76.80;1433.60;;;;;;4990784;28;20027;-76
2022/03/11 12:08:34;;;;;;;14.40;7.68;;;76.80;1459.20;;;;;;4975890;28;20035;-76
2022/03/11 12:11:00;;;;;;;16.52;6.93;;;76.80;1459.20;;;;;;4990652;28;20069;-76
2022/03/11 12:13:37;;;;;;;15.77;8.40;;;52.10;1433.60;;;;;;4975703;28;20026;-75